Time;durP1;ratioP1;P1;durP2;ratioP2;P2;SDS_P1;SDS_P2;PMS_P1;PMS_P2;Temp;Humidity;BMP_temperature;BMP_pressure;BME280_temperature;BME280_humidity;BME280_pressure;Samples;Min_cycle;Max_cycle;Signal;HPM_P1;HPM_P2
2022/06/09 00:00:52;;;;;;;;;;;;;;;17.20;64.42;99702.38;5047739;28;1942;-95
2022/06/09 00:03:18;;;;;;;;;;;;;;;17.19;64.26;99698.84;5058982;28;1291;-94
2022/06/09 00:05:45;;;;;;;;;;;;;;;17.19;64.28;99711.66;5058437;28;1820;-94
2022/06/09 00:08:12;;;;;;;;;;;;;;;17.17;64.25;99709.19;5059075;28;1345;-95
2022/06/09 00:10:38;;;;;;;;;;;;;;;17.17;64.18;99711.91;5053704;28;3159;-95
2022/06/09 00:13:05;;;;;;;;;;;;;;;17.16;64.19;99710.31;5088676;28;1342;-95
2022/06/09 00:15:31;;;;;;;;;;;;;;;17.15;64.33;99708.69;5058377;28;1559;-95
2022/06/09 00:17:58;;;;;;;;;;;;;;;17.15;64.44;99707.88;5050390;28;1200;-95
2022/06/09 00:20:25;;;;;;;;;;;;;;;17.15;64.16;99705.16;5058809;28;1219;-95
2022/06/09 00:22:52;;;;;;;;;;;;;;;17.14;64.45;99711.69;5038893;28;2062;-95
2022/06/09 00:25:18;;;;;;;;;;;;;;;17.13;64.36;99707.34;5054910;28;1301;-96
2022/06/09 00:27:45;;;;;;;;;;;;;;;17.12;64.20;99711.97;5076093;28;976;-94
2022/06/09 00:30:12;;;;;;;;;;;;;;;17.12;64.14;99720.13;5058238;28;1267;-95
2022/06/09 00:32:38;;;;;;;;;;;;;;;17.12;64.20;99716.59;5062437;28;1311;-95
2022/06/09 00:35:05;;;;;;;;;;;;;;;17.11;64.13;99725.84;5066522;28;2926;-94
2022/06/09 00:37:32;;;;;;;;;;;;;;;17.10;64.20;99730.47;5058350;28;1289;-95
2022/06/09 00:39:59;;;;;;;;;;;;;;;17.10;64.21;99724.25;5058121;28;1611;-95
2022/06/09 00:42:26;;;;;;;;;;;;;;;17.09;64.10;99722.59;5074794;28;1967;-94
2022/06/09 00:44:52;;;;;;;;;;;;;;;17.09;64.18;99730.75;5058059;28;1204;-95
2022/06/09 00:47:19;;;;;;;;;;;;;;;17.08;64.12;99737.31;5069170;28;1172;-95
2022/06/09 00:49:46;;;;;;;;;;;;;;;17.07;64.05;99733.78;5057755;28;1594;-95
2022/06/09 00:52:12;;;;;;;;;;;;;;;17.07;64.12;99733.78;5074446;28;1209;-95
2022/06/09 00:54:39;;;;;;;;;;;;;;;17.06;64.26;99739.47;5054265;28;1303;-95
2022/06/09 00:57:05;;;;;;;;;;;;;;;17.05;63.97;99735.13;5056276;28;1385;-95
2022/06/09 00:59:32;;;;;;;;;;;;;;;17.05;64.21;99737.88;5044111;28;1661;-95
2022/06/09 01:01:58;;;;;;;;;;;;;;;17.03;64.06;99744.41;5054966;28;1902;-94
2022/06/09 01:04:25;;;;;;;;;;;;;;;17.03;64.10;99738.16;5051045;28;1830;-95
2022/06/09 01:06:52;;;;;;;;;;;;;;;17.02;64.23;99736.50;5045934;28;1284;-95
2022/06/09 01:09:18;;;;;;;;;;;;;;;17.01;64.08;99741.16;5057684;28;1222;-95
2022/06/09 01:11:45;;;;;;;;;;;;;;;17.01;64.04;99743.06;5057586;28;1201;-94
2022/06/09 01:14:13;;;;;;;;;;;;;;;17.01;64.10;99748.50;5057303;28;1295;-96
2022/06/09 01:16:40;;;;;;;;;;;;;;;16.99;64.10;99743.34;5057603;28;1194;-95
2022/06/09 01:19:06;;;;;;;;;;;;;;;16.99;64.07;99740.59;5074440;28;1371;-95
2022/06/09 01:21:33;;;;;;;;;;;;;;;16.99;63.93;99743.34;5055675;28;1910;-94
2022/06/09 01:23:59;;;;;;;;;;;;;;;16.98;64.01;99743.63;5054013;28;1298;-95
2022/06/09 01:26:26;;;;;;;;;;;;;;;16.98;64.01;99752.59;5050978;28;1164;-95
2022/06/09 01:28:52;;;;;;;;;;;;;;;16.97;64.17;99750.97;5052821;28;2286;-94
2022/06/09 01:31:19;;;;;;;;;;;;;;;16.96;64.13;99748.53;5052484;28;2184;-95
2022/06/09 01:33:45;;;;;;;;;;;;;;;16.96;63.88;99751.25;5058084;28;1181;-95
2022/06/09 01:36:12;;;;;;;;;;;;;;;16.96;64.03;99748.53;5057604;28;1256;-95
2022/06/09 01:38:38;;;;;;;;;;;;;;;16.95;63.93;99757.78;5057193;28;1637;-95
2022/06/09 01:41:05;;;;;;;;;;;;;;;16.94;64.11;99758.88;5052308;28;2752;-94
2022/06/09 01:43:32;;;;;;;;;;;;;;;16.93;63.88;99749.91;5068263;28;1339;-94
2022/06/09 01:45:58;;;;;;;;;;;;;;;16.94;63.97;99756.16;5057189;28;1211;-95
2022/06/09 01:48:25;;;;;;;;;;;;;;;16.93;64.07;99757.25;5053964;28;1613;-95
2022/06/09 01:50:52;;;;;;;;;;;;;;;16.92;63.97;99761.06;5065310;28;1783;-95
2022/06/09 01:53:18;;;;;;;;;;;;;;;16.92;64.09;99770.03;5053753;28;1256;-94
2022/06/09 01:55:45;;;;;;;;;;;;;;;16.92;64.03;99766.50;5055306;28;1196;-95
2022/06/09 01:58:11;;;;;;;;;;;;;;;16.90;63.82;99765.97;5057307;28;1310;-94
2022/06/09 02:00:38;;;;;;;;;;;;;;;16.90;63.99;99772.22;5074721;28;1043;-95
2022/06/09 02:03:04;;;;;;;;;;;;;;;16.89;63.94;99770.59;5056741;28;1974;-95
2022/06/09 02:05:31;;;;;;;;;;;;;;;16.88;63.99;99771.69;5056976;28;1186;-94
2022/06/09 02:07:58;;;;;;;;;;;;;;;16.89;63.93;99777.94;5057096;28;1394;-95
2022/06/09 02:10:24;;;;;;;;;;;;;;;16.88;63.80;99779.84;5057289;28;1318;-95
2022/06/09 02:12:51;;;;;;;;;;;;;;;16.86;63.90;99779.31;5075358;28;1304;-95
2022/06/09 02:15:18;;;;;;;;;;;;;;;16.87;63.89;99785.56;5061463;28;1329;-95
2022/06/09 02:17:45;;;;;;;;;;;;;;;16.86;63.90;99782.03;5057463;28;1710;-94
2022/06/09 02:20:11;;;;;;;;;;;;;;;16.87;63.88;99785.56;5076145;28;1760;-94
2022/06/09 02:22:38;;;;;;;;;;;;;;;16.85;63.70;99783.13;5077429;28;1914;-95
2022/06/09 02:25:04;;;;;;;;;;;;;;;16.85;63.83;99787.75;5078487;28;1012;-95
2022/06/09 02:27:31;;;;;;;;;;;;;;;16.84;63.73;99781.50;5061274;28;1168;-95
2022/06/09 02:29:57;;;;;;;;;;;;;;;16.84;63.84;99789.66;5060452;28;1179;-95
2022/06/09 02:32:24;;;;;;;;;;;;;;;16.83;63.81;99790.75;5060597;28;1368;-95
2022/06/09 02:34:50;;;;;;;;;;;;;;;16.83;63.81;99785.31;5076983;28;1247;-94
2022/06/09 02:37:16;;;;;;;;;;;;;;;16.83;63.64;99784.50;5077546;28;1378;-95
2022/06/09 02:39:43;;;;;;;;;;;;;;;16.82;63.73;99791.84;5063896;28;1217;-95
2022/06/09 02:42:10;;;;;;;;;;;;;;;16.81;63.62;99792.94;5047589;28;1969;-95
2022/06/09 02:44:36;;;;;;;;;;;;;;;16.80;63.74;99796.75;5063323;28;1450;-95
2022/06/09 02:47:03;;;;;;;;;;;;;;;16.80;63.73;99796.75;5058824;28;1239;-94
2022/06/09 02:49:29;;;;;;;;;;;;;;;16.79;63.72;99795.13;5079205;28;3623;-95
2022/06/09 02:51:56;;;;;;;;;;;;;;;16.78;63.59;99804.38;5062178;28;1395;-95
2022/06/09 02:54:22;;;;;;;;;;;;;;;16.76;63.67;99799.19;5073116;28;1271;-95
2022/06/09 02:56:49;;;;;;;;;;;;;;;16.76;63.76;99793.75;5056830;28;1300;-95
2022/06/09 02:59:15;;;;;;;;;;;;;;;16.76;63.55;99804.63;5057386;28;1234;-95
2022/06/09 03:01:42;;;;;;;;;;;;;;;16.75;63.60;99804.91;5056816;28;1910;-95
2022/06/09 03:04:08;;;;;;;;;;;;;;;16.74;63.59;99800.56;5058564;28;1567;-95
2022/06/09 03:06:35;;;;;;;;;;;;;;;16.74;63.62;99801.38;5073549;28;1286;-95
2022/06/09 03:09:01;;;;;;;;;;;;;;;16.74;63.70;99806.00;5073483;28;1320;-94
2022/06/09 03:11:28;;;;;;;;;;;;;;;16.73;63.69;99807.88;5057008;28;1204;-95
2022/06/09 03:13:54;;;;;;;;;;;;;;;16.71;63.66;99807.38;5056255;28;1286;-95
2022/06/09 03:16:21;;;;;;;;;;;;;;;16.72;63.56;99813.63;5056049;28;1176;-95
2022/06/09 03:18:47;;;;;;;;;;;;;;;16.72;63.65;99816.34;5053325;28;1215;-95
2022/06/09 03:21:14;;;;;;;;;;;;;;;16.71;63.65;99820.16;5065652;28;1285;-95
2022/06/09 03:23:40;;;;;;;;;;;;;;;16.69;63.56;99812.25;5056065;28;1922;-95
2022/06/09 03:26:07;;;;;;;;;;;;;;;16.69;63.66;99822.31;5073323;28;1431;-95
2022/06/09 03:28:33;;;;;;;;;;;;;;;16.69;63.58;99816.88;5047305;28;4214;-94
2022/06/09 03:31:00;;;;;;;;;;;;;;;16.68;63.50;99828.88;5041760;28;1819;-94
2022/06/09 03:33:26;;;;;;;;;;;;;;;16.68;63.64;99823.44;5056284;28;1183;-95
2022/06/09 03:35:53;;;;;;;;;;;;;;;16.67;63.60;99838.91;5056623;28;1502;-94
2022/06/09 03:38:20;;;;;;;;;;;;;;;16.67;63.63;99840.81;5055980;28;1290;-95
2022/06/09 03:40:46;;;;;;;;;;;;;;;16.67;63.56;99829.94;5057147;28;1586;-95
2022/06/09 03:43:13;;;;;;;;;;;;;;;16.65;63.52;99837.53;5055610;28;1972;-94
2022/06/09 03:45:40;;;;;;;;;;;;;;;16.65;63.49;99846.53;5056218;28;1240;-94
2022/06/09 03:48:06;;;;;;;;;;;;;;;16.64;63.50;99841.38;5081888;28;1171;-95
2022/06/09 03:50:33;;;;;;;;;;;;;;;16.64;63.46;99849.53;5062502;28;1254;-95
2022/06/09 03:52:59;;;;;;;;;;;;;;;16.64;63.48;99853.06;5056010;28;1311;-94
2022/06/09 03:55:26;;;;;;;;;;;;;;;16.63;63.51;99856.88;5053806;28;1587;-94
2022/06/09 03:57:52;;;;;;;;;;;;;;;16.62;63.40;99855.25;5055750;28;1320;-94
2022/06/09 04:00:19;;;;;;;;;;;;;;;16.62;63.66;99866.13;5055811;28;1205;-94
2022/06/09 04:02:45;;;;;;;;;;;;;;;16.61;63.55;99856.31;5055269;28;1972;-95
2022/06/09 04:05:13;;;;;;;;;;;;;;;16.59;63.52;99861.25;5055571;28;2136;-95
2022/06/09 04:07:39;;;;;;;;;;;;;;;16.61;63.50;99875.34;5055742;28;1257;-94
2022/06/09 04:10:06;;;;;;;;;;;;;;;16.60;63.54;99878.34;5056109;28;1292;-94
2022/06/09 04:12:34;;;;;;;;;;;;;;;16.60;63.48;99872.94;5055270;28;1773;-95
2022/06/09 04:15:01;;;;;;;;;;;;;;;16.58;63.47;99875.91;5055478;28;1381;-94
2022/06/09 04:17:28;;;;;;;;;;;;;;;16.59;63.47;99885.72;5055092;28;1651;-94
2022/06/09 04:19:54;;;;;;;;;;;;;;;16.58;63.47;99884.88;5055164;28;1200;-94
2022/06/09 04:22:21;;;;;;;;;;;;;;;16.58;63.51;99886.78;5052794;28;1914;-95
2022/06/09 04:24:47;;;;;;;;;;;;;;;16.57;63.49;99890.59;5055375;28;1341;-94
2022/06/09 04:27:14;;;;;;;;;;;;;;;16.56;63.51;99888.97;5055295;28;1201;-95
2022/06/09 04:29:40;;;;;;;;;;;;;;;16.55;63.32;99892.75;5072265;28;1391;-95
2022/06/09 04:32:07;;;;;;;;;;;;;;;16.55;63.48;99896.28;5055778;28;965;-94
2022/06/09 04:34:33;;;;;;;;;;;;;;;16.55;63.45;99895.47;5054183;28;2160;-95
2022/06/09 04:37:00;;;;;;;;;;;;;;;16.54;63.32;99891.97;5047724;28;2338;-95
2022/06/09 04:39:26;;;;;;;;;;;;;;;16.54;63.29;99896.59;5071857;28;1457;-95
2022/06/09 04:41:53;;;;;;;;;;;;;;;16.52;63.36;99896.84;5070772;28;1984;-95
2022/06/09 04:44:19;;;;;;;;;;;;;;;16.53;63.44;99901.22;5053106;28;1570;-95
2022/06/09 04:46:46;;;;;;;;;;;;;;;16.53;63.41;99900.38;5037409;28;1868;-94
2022/06/09 04:49:12;;;;;;;;;;;;;;;16.52;63.36;99905.00;5071046;28;1732;-95
2022/06/09 04:51:39;;;;;;;;;;;;;;;16.52;63.36;99899.56;5054908;28;1212;-94
2022/06/09 04:54:06;;;;;;;;;;;;;;;16.51;63.30;99910.72;5048235;28;2709;-94
2022/06/09 04:56:32;;;;;;;;;;;;;;;16.50;63.39;99901.75;5061539;28;1161;-94
2022/06/09 04:58:59;;;;;;;;;;;;;;;16.51;63.30;99913.44;5054918;28;1208;-95
2022/06/09 05:01:25;;;;;;;;;;;;;;;16.50;63.26;99912.63;5071297;28;1148;-95
2022/06/09 05:03:52;;;;;;;;;;;;;;;16.50;63.26;99915.34;5050320;28;2250;-95
2022/06/09 05:06:19;;;;;;;;;;;;;;;16.48;63.27;99914.81;5038675;28;1213;-95
2022/06/09 05:08:45;;;;;;;;;;;;;;;16.48;63.22;99911.28;5058740;28;1933;-94
2022/06/09 05:11:12;;;;;;;;;;;;;;;16.49;63.26;99918.31;5053902;28;1662;-94
2022/06/09 05:13:38;;;;;;;;;;;;;;;16.48;63.35;99928.38;5050490;28;2293;-94
2022/06/09 05:16:05;;;;;;;;;;;;;;;16.48;63.25;99916.72;5067955;28;2147;-95
2022/06/09 05:18:31;;;;;;;;;;;;;;;16.47;63.31;99926.78;5054500;28;1227;-95
2022/06/09 05:20:58;;;;;;;;;;;;;;;16.46;63.28;99925.13;5054264;28;2003;-94
2022/06/09 05:23:24;;;;;;;;;;;;;;;16.46;63.29;99933.28;5054595;28;1982;-94
2022/06/09 05:25:51;;;;;;;;;;;;;;;16.46;63.28;99927.84;5054400;28;1214;-94
2022/06/09 05:28:18;;;;;;;;;;;;;;;16.45;63.22;99934.38;5053057;28;2051;-94
2022/06/09 05:30:44;;;;;;;;;;;;;;;16.45;63.22;99930.84;5053948;28;1370;-94
2022/06/09 05:33:11;;;;;;;;;;;;;;;16.45;63.20;99931.66;5051524;28;2052;-94
2022/06/09 05:35:37;;;;;;;;;;;;;;;16.44;63.24;99931.91;5054086;28;1319;-95
2022/06/09 05:46:16;;;;;;;;;;;;;;;16.42;63.09;99948.50;5056531;28;3135;-94
2022/06/09 05:48:43;;;;;;;;;;;;;;;16.43;63.08;99954.75;5055940;28;1306;-95
2022/06/09 05:51:09;;;;;;;;;;;;;;;16.42;63.20;99958.56;5075140;28;1233;-94
2022/06/09 05:53:36;;;;;;;;;;;;;;;16.42;63.12;99961.28;5077879;28;1429;-95
2022/06/09 05:56:02;;;;;;;;;;;;;;;16.40;63.27;99958.03;5078255;28;2265;-94
2022/06/09 05:58:30;;;;;;;;;;;;;;;16.41;63.00;99965.88;5055886;28;2182;-94
2022/06/09 06:00:56;;;;;;;;;;;;;;;16.41;63.20;99968.59;5052155;28;2103;-94
2022/06/09 06:03:23;;;;;;;;;;;;;;;16.40;63.13;99968.88;5056288;28;2056;-95
2022/06/09 06:08:33;;;;;;;;;;;;;;;16.40;63.04;99975.13;5043267;28;1288;-94
2022/06/09 06:11:00;;;;;;;;;;;;;;;16.39;62.93;99978.94;5068296;28;3624;-94
2022/06/09 06:13:27;;;;;;;;;;;;;;;16.39;63.00;99980.84;5060791;28;1388;-94
2022/06/09 06:15:53;;;;;;;;;;;;;;;16.37;63.09;99978.41;5074714;28;2067;-94
2022/06/09 06:18:20;;;;;;;;;;;;;;;16.37;63.02;99983.03;5057884;28;4628;-94
2022/06/09 06:20:47;;;;;;;;;;;;;;;16.36;63.04;99987.66;5056875;28;2139;-94
2022/06/09 06:23:14;;;;;;;;;;;;;;;16.37;63.06;99993.88;5060727;28;1910;-95
2022/06/09 06:25:41;;;;;;;;;;;;;;;16.38;63.03;99995.50;5058750;28;4091;-94
2022/06/09 06:28:07;;;;;;;;;;;;;;;16.37;62.98;99994.69;5075801;28;2201;-95
2022/06/09 06:30:34;;;;;;;;;;;;;;;16.36;62.98;100001.25;5077224;28;1155;-93
2022/06/09 06:33:00;;;;;;;;;;;;;;;16.36;63.03;100001.25;5075330;28;1742;-94
2022/06/09 06:35:27;;;;;;;;;;;;;;;16.35;62.98;100003.16;5054700;28;1685;-94
2022/06/09 06:37:53;;;;;;;;;;;;;;;16.36;62.95;100006.66;5071680;28;3519;-94
2022/06/09 06:40:20;;;;;;;;;;;;;;;16.35;62.93;100005.03;5056878;28;4884;-95
2022/06/09 06:42:47;;;;;;;;;;;;;;;16.34;62.92;100006.94;5070737;28;2728;-94
2022/06/09 06:45:13;;;;;;;;;;;;;;;16.34;63.12;100012.34;5077385;28;1330;-94
2022/06/09 06:47:40;;;;;;;;;;;;;;;16.34;62.95;100006.94;5060230;28;1298;-94
2022/06/09 06:50:06;;;;;;;;;;;;;;;16.34;63.04;100011.56;5076899;28;2004;-94
2022/06/09 06:52:33;;;;;;;;;;;;;;;16.34;62.99;100014.25;5060360;28;1167;-94
2022/06/09 06:55:00;;;;;;;;;;;;;;;16.33;62.99;100024.31;5057382;28;2046;-94
2022/06/09 06:57:26;;;;;;;;;;;;;;;16.33;62.93;100021.59;5059045;28;1951;-94
2022/06/09 06:59:53;;;;;;;;;;;;;;;16.33;62.85;100012.66;5057078;28;1963;-94
2022/06/09 07:02:20;;;;;;;;;;;;;;;16.33;62.95;100009.94;5059496;28;1951;-94
2022/06/09 07:04:46;;;;;;;;;;;;;;;16.32;62.81;100022.72;5061255;28;1899;-94
2022/06/09 07:07:13;;;;;;;;;;;;;;;16.31;62.84;100023.78;5080037;28;1222;-94
2022/06/09 07:09:39;;;;;;;;;;;;;;;16.32;62.88;100028.13;5075009;28;1882;-94
2022/06/09 07:12:06;;;;;;;;;;;;;;;16.32;62.80;100030.84;5049644;28;4055;-94
2022/06/09 07:14:33;;;;;;;;;;;;;;;16.32;62.92;100030.03;5059009;28;1299;-94
2022/06/09 07:17:00;;;;;;;;;;;;;;;16.32;62.97;100041.72;5063669;28;1248;-94
2022/06/09 07:19:29;;;;;;;;;;;;;;;16.32;62.89;100036.28;5042444;28;3713;-94
2022/06/09 07:21:55;;;;;;;;;;;;;;;16.32;62.77;100040.88;5061739;28;2005;-94
2022/06/09 07:24:22;;;;;;;;;;;;;;;16.30;62.87;100046.59;5080223;28;1913;-94
2022/06/09 07:26:48;;;;;;;;;;;;;;;16.30;62.88;100043.88;5059971;28;1863;-94
2022/06/09 07:29:16;;;;;;;;;;;;;;;16.30;62.83;100046.59;5055725;28;1245;-94
2022/06/09 07:31:43;;;;;;;;;;;;;;;16.29;62.81;100044.16;5056528;28;1306;-94
2022/06/09 07:34:09;;;;;;;;;;;;;;;16.30;62.89;100051.22;5056567;28;1194;-94
2022/06/09 07:36:36;;;;;;;;;;;;;;;16.30;62.83;100043.09;5071615;28;2203;-94
2022/06/09 07:39:03;;;;;;;;;;;;;;;16.28;62.83;100051.50;5062870;28;1285;-94
2022/06/09 07:41:29;;;;;;;;;;;;;;;16.28;62.87;100051.50;5060137;28;2000;-94
2022/06/09 07:43:56;;;;;;;;;;;;;;;16.29;62.79;100061.25;5050724;28;1902;-95
2022/06/09 07:46:22;;;;;;;;;;;;;;;16.30;62.73;100067.53;5056539;28;1325;-94
2022/06/09 07:48:49;;;;;;;;;;;;;;;16.29;62.80;100065.88;5056019;28;1171;-94
2022/06/09 07:51:15;;;;;;;;;;;;;;;16.29;62.78;100065.88;5042322;28;1186;-94
2022/06/09 07:53:42;;;;;;;;;;;;;;;16.28;62.82;100073.22;5076070;28;1241;-94
2022/06/09 07:56:08;;;;;;;;;;;;;;;16.28;62.81;100081.38;5055747;28;2002;-94
2022/06/09 07:58:35;;;;;;;;;;;;;;;16.29;62.78;100084.91;5059513;28;1218;-94
2022/06/09 08:01:01;;;;;;;;;;;;;;;16.28;62.74;100086.00;5058009;28;1953;-94
2022/06/09 08:03:28;;;;;;;;;;;;;;;16.27;62.67;100095.25;5054909;28;2607;-94
2022/06/09 08:05:54;;;;;;;;;;;;;;;16.28;62.79;100094.97;5075435;28;2401;-94
2022/06/09 08:08:21;;;;;;;;;;;;;;;16.27;62.75;100096.06;5058933;28;1321;-94
2022/06/09 08:10:48;;;;;;;;;;;;;;;16.27;62.81;100106.13;5056432;28;1967;-94
2022/06/09 08:13:14;;;;;;;;;;;;;;;16.27;62.61;100108.84;5063742;28;1274;-94
2022/06/09 08:15:41;;;;;;;;;;;;;;;16.27;62.70;100112.34;5078801;28;1174;-94
2022/06/09 08:18:07;;;;;;;;;;;;;;;16.26;62.75;100102.56;5079015;28;1290;-94
2022/06/09 08:20:34;;;;;;;;;;;;;;;16.27;62.69;100112.34;5068571;28;1356;-94
2022/06/09 08:23:00;;;;;;;;;;;;;;;16.25;62.67;100111.00;5058314;28;1910;-94
2022/06/09 08:25:27;;;;;;;;;;;;;;;16.25;62.58;100116.41;5057581;28;2013;-93
2022/06/09 08:27:53;;;;;;;;;;;;;;;16.25;62.65;100103.66;5054035;28;3649;-94
2022/06/09 08:30:20;;;;;;;;;;;;;;;16.25;62.72;100111.81;5072419;28;1949;-94
2022/06/09 08:32:46;;;;;;;;;;;;;;;16.24;62.72;100102.03;5058581;28;1167;-94
2022/06/09 08:35:13;;;;;;;;;;;;;;;16.24;62.68;100112.91;5058904;28;1180;-94
2022/06/09 08:37:40;;;;;;;;;;;;;;;16.24;62.74;100117.53;5058223;28;1373;-94
2022/06/09 08:40:06;;;;;;;;;;;;;;;16.23;62.79;100111.25;5091051;28;1997;-94
2022/06/09 08:42:33;;;;;;;;;;;;;;;16.24;62.68;100125.66;5058241;28;1179;-94
2022/06/09 08:45:02;;;;;;;;;;;;;;;16.23;62.67;100132.16;5058502;28;1984;-94
2022/06/09 08:47:28;;;;;;;;;;;;;;;16.23;62.60;100122.09;5062661;28;1187;-94
2022/06/09 08:49:55;;;;;;;;;;;;;;;16.22;62.70;100128.63;5073485;28;1941;-94
2022/06/09 08:52:23;;;;;;;;;;;;;;;16.22;62.73;100131.34;5057204;28;1801;-94
2022/06/09 08:54:50;;;;;;;;;;;;;;;16.22;62.67;100131.34;5075427;28;1230;-94
2022/06/09 08:57:17;;;;;;;;;;;;;;;16.22;62.61;100130.53;5056878;28;2022;-94
2022/06/09 08:59:48;;;;;;;;;;;;;;;16.22;62.65;100128.63;5058948;28;1053;-94
2022/06/09 09:02:14;;;;;;;;;;;;;;;16.21;62.70;100132.44;5057857;28;1274;-94
2022/06/09 09:04:42;;;;;;;;;;;;;;;16.22;62.61;100138.69;5089983;28;1968;-94
2022/06/09 09:07:09;;;;;;;;;;;;;;;16.22;62.90;100138.69;5046005;28;2411;-94
2022/06/09 09:09:35;;;;;;;;;;;;;;;16.22;62.65;100133.25;5057938;28;1187;-94
2022/06/09 09:12:02;;;;;;;;;;;;;;;16.22;62.58;100147.66;5068265;28;1997;-94
2022/06/09 09:14:29;;;;;;;;;;;;;;;16.22;62.62;100146.84;5074336;28;1275;-94
2022/06/09 09:16:56;;;;;;;;;;;;;;;16.21;62.79;100148.75;5074325;28;1211;-94
2022/06/09 09:19:22;;;;;;;;;;;;;;;16.21;62.66;100154.19;5062858;28;1235;-94
2022/06/09 09:21:49;;;;;;;;;;;;;;;16.21;62.61;100150.66;5065497;28;1275;-95
2022/06/09 09:24:17;;;;;;;;;;;;;;;16.20;62.90;100155.25;5053897;28;1914;-94
2022/06/09 09:26:43;;;;;;;;;;;;;;;16.20;62.68;100160.69;5071089;28;2019;-94
2022/06/09 09:29:10;;;;;;;;;;;;;;;16.20;62.70;100159.88;5057689;28;1498;-94
2022/06/09 09:31:36;;;;;;;;;;;;;;;16.22;62.63;100160.44;5092088;28;1288;-94
2022/06/09 09:34:03;;;;;;;;;;;;;;;16.21;62.64;100164.25;5066267;28;2746;-94
2022/06/09 09:36:30;;;;;;;;;;;;;;;16.19;62.68;100159.06;5074116;28;1239;-94
2022/06/09 09:38:56;;;;;;;;;;;;;;;16.20;62.66;100165.31;5074286;28;1371;-94
2022/06/09 09:41:23;;;;;;;;;;;;;;;16.20;62.58;100168.03;5051308;28;5089;-94
2022/06/09 09:43:49;;;;;;;;;;;;;;;16.19;62.56;100167.22;5042767;28;4016;-94
2022/06/09 09:46:16;;;;;;;;;;;;;;;16.20;62.58;100174.25;5037635;28;1261;-94
2022/06/09 09:48:42;;;;;;;;;;;;;;;16.20;62.56;100182.41;5052933;28;1330;-94
2022/06/09 09:51:12;;;;;;;;;;;;;;;16.21;62.65;100183.25;5057241;28;1270;-94
2022/06/09 09:53:38;;;;;;;;;;;;;;;16.20;62.63;100179.69;5056297;28;2030;-94
2022/06/09 09:56:05;;;;;;;;;;;;;;;16.20;62.67;100176.16;5058945;28;1962;-94
2022/06/09 09:58:33;;;;;;;;;;;;;;;16.19;62.66;100174.56;5074898;28;972;-94
2022/06/09 10:01:00;;;;;;;;;;;;;;;16.19;62.62;100169.94;5057359;28;1188;-94
2022/06/09 10:08:54;;;;;;;;;;;;;;;16.19;62.64;100188.13;5057552;28;1210;-94
2022/06/09 10:14:06;;;;;;;;;;;;;;;16.18;62.59;100184.59;5073738;28;1284;-94
2022/06/09 10:16:32;;;;;;;;;;;;;;;16.19;62.61;100188.13;5057253;28;1350;-94
2022/06/09 10:18:59;;;;;;;;;;;;;;;16.19;62.55;100188.13;5073591;28;1287;-94
2022/06/09 10:21:25;;;;;;;;;;;;;;;16.19;62.58;100196.28;5056916;28;1376;-94
2022/06/09 10:23:52;;;;;;;;;;;;;;;16.20;62.60;100198.72;5073836;28;1906;-94
2022/06/09 10:26:18;;;;;;;;;;;;;;;16.19;62.61;100199.81;5054447;28;2006;-93
2022/06/09 10:28:45;;;;;;;;;;;;;;;16.19;62.59;100191.66;5057021;28;1283;-94
2022/06/09 10:31:11;;;;;;;;;;;;;;;16.19;62.56;100197.09;5072831;28;1961;-94
2022/06/09 10:33:39;;;;;;;;;;;;;;;16.19;62.56;100193.56;5090932;28;1257;-95
2022/06/09 10:36:05;;;;;;;;;;;;;;;16.19;62.68;100202.53;5094390;28;1284;-94
2022/06/09 10:38:32;;;;;;;;;;;;;;;16.20;62.67;100206.06;5079481;28;1163;-95
2022/06/09 10:40:58;;;;;;;;;;;;;;;16.19;62.61;100205.25;5058905;28;2018;-94
2022/06/09 10:43:25;;;;;;;;;;;;;;;16.19;62.59;100205.25;5057658;28;3825;-94
2022/06/09 10:45:52;;;;;;;;;;;;;;;16.18;62.67;100209.06;5096183;28;1336;-94
2022/06/09 10:56:31;;;;;;;;;;;;;;;16.19;62.71;100193.56;5049414;28;2377;-94
2022/06/09 10:58:58;;;;;;;;;;;;;;;16.19;62.55;100185.41;5042639;28;1391;-94
2022/06/09 11:01:25;;;;;;;;;;;;;;;16.19;62.67;100185.41;5076771;28;1373;-94
2022/06/09 11:03:51;;;;;;;;;;;;;;;16.19;62.61;100185.41;5077188;28;1983;-94
2022/06/09 11:06:18;;;;;;;;;;;;;;;16.21;62.66;100192.22;5070459;28;2084;-94
2022/06/09 11:08:44;;;;;;;;;;;;;;;16.19;62.58;100188.94;5041888;28;1570;-94
2022/06/09 11:11:11;;;;;;;;;;;;;;;16.20;62.70;100184.31;5074726;28;1989;-95
2022/06/09 11:13:37;;;;;;;;;;;;;;;16.20;62.60;100196.00;5056596;28;2759;-94
2022/06/09 11:16:04;;;;;;;;;;;;;;;16.20;62.61;100206.88;5069152;28;4042;-94
2022/06/09 11:18:30;;;;;;;;;;;;;;;16.21;62.60;100185.97;5057926;28;2605;-95
2022/06/09 11:20:58;;;;;;;;;;;;;;;16.20;62.61;100184.31;5061467;28;1267;-95
2022/06/09 11:23:25;;;;;;;;;;;;;;;16.21;62.68;100185.97;5079846;28;1315;-94
2022/06/09 11:25:51;;;;;;;;;;;;;;;16.21;62.65;100177.81;5075218;28;2020;-94
2022/06/09 11:28:18;;;;;;;;;;;;;;;16.22;62.57;100187.59;5058586;28;1898;-94
2022/06/09 11:30:44;;;;;;;;;;;;;;;16.22;62.66;100184.88;5046844;28;1605;-94
2022/06/09 11:33:11;;;;;;;;;;;;;;;16.24;62.55;100190.88;5081571;28;1223;-94
2022/06/09 11:35:37;;;;;;;;;;;;;;;16.24;62.48;100196.31;5079845;28;1261;-94
2022/06/09 11:38:04;;;;;;;;;;;;;;;16.24;62.53;100188.97;5079584;28;1246;-95
2022/06/09 11:40:31;;;;;;;;;;;;;;;16.23;62.67;100192.75;5075474;28;1960;-95
2022/06/09 11:42:58;;;;;;;;;;;;;;;16.24;62.58;100193.59;5059073;28;1757;-94
2022/06/09 11:45:25;;;;;;;;;;;;;;;16.24;62.44;100209.91;5058256;28;1899;-94
2022/06/09 11:47:51;;;;;;;;;;;;;;;16.25;62.52;100206.09;5092668;28;1123;-94
2022/06/09 11:50:18;;;;;;;;;;;;;;;16.26;62.46;100215.84;5071794;28;3919;-94
2022/06/09 11:52:45;;;;;;;;;;;;;;;16.25;62.39;100209.63;5039668;28;1358;-95
2022/06/09 11:55:11;;;;;;;;;;;;;;;16.27;62.39;100220.22;5039165;28;2192;-94
2022/06/09 11:57:38;;;;;;;;;;;;;;;16.26;62.33;100213.97;5049245;28;1910;-94
2022/06/09 12:00:04;;;;;;;;;;;;;;;16.27;62.48;100212.91;5059072;28;1302;-94
2022/06/09 12:02:31;;;;;;;;;;;;;;;16.27;62.43;100212.09;5058762;28;1182;-95
2022/06/09 12:04:57;;;;;;;;;;;;;;;16.28;62.39;100219.13;5059039;28;1909;-94
2022/06/09 12:07:24;;;;;;;;;;;;;;;16.27;62.48;100206.66;5058977;28;1305;-94
2022/06/09 12:09:51;;;;;;;;;;;;;;;16.28;62.38;100209.09;5057450;28;1448;-94
2022/06/09 12:12:18;;;;;;;;;;;;;;;16.30;62.45;100214.28;5049034;28;2390;-94
2022/06/09 12:14:44;;;;;;;;;;;;;;;16.30;62.38;100208.84;5075588;28;1268;-95
2022/06/09 12:17:11;;;;;;;;;;;;;;;16.29;62.37;100205.28;5074456;28;2518;-94
2022/06/09 12:19:38;;;;;;;;;;;;;;;16.31;62.39;100208.56;5059663;28;1167;-94
2022/06/09 12:22:04;;;;;;;;;;;;;;;16.32;62.53;100206.66;5057018;28;1919;-94
2022/06/09 12:24:31;;;;;;;;;;;;;;;16.31;62.50;100219.41;5058479;28;1975;-94
2022/06/09 12:26:58;;;;;;;;;;;;;;;16.33;62.55;100213.72;5056962;28;1974;-94
2022/06/09 12:29:24;;;;;;;;;;;;;;;16.32;62.48;100221.06;5058783;28;1313;-94
2022/06/09 12:31:51;;;;;;;;;;;;;;;16.33;62.50;100213.72;5065324;28;1784;-94
2022/06/09 12:34:17;;;;;;;;;;;;;;;16.35;62.55;100225.13;5055159;28;1309;-94
2022/06/09 12:36:44;;;;;;;;;;;;;;;16.35;62.55;100223.25;5056731;28;1224;-95
2022/06/09 12:39:10;;;;;;;;;;;;;;;16.34;62.70;100227.03;5075270;28;1319;-94
2022/06/09 12:41:37;;;;;;;;;;;;;;;16.35;62.68;100231.41;5073728;28;1955;-94
2022/06/09 12:44:04;;;;;;;;;;;;;;;16.35;62.83;100231.41;5075545;28;1894;-94
2022/06/09 12:46:30;;;;;;;;;;;;;;;16.35;62.87;100234.13;5074692;28;1277;-94
2022/06/09 12:48:57;;;;;;;;;;;;;;;16.37;63.03;100233.03;5058594;28;1354;-95
2022/06/09 12:51:23;;;;;;;;;;;;;;;16.36;63.17;100243.09;5057655;28;1903;-94
2022/06/09 12:53:50;;;;;;;;;;;;;;;16.38;63.19;100245.53;5058045;28;1201;-95
2022/06/09 12:56:16;;;;;;;;;;;;;;;16.38;63.15;100250.97;5082155;28;3836;-95
2022/06/09 12:58:45;;;;;;;;;;;;;;;16.38;63.14;100243.63;5054650;28;2139;-94
2022/06/09 13:01:12;;;;;;;;;;;;;;;16.39;63.23;100242.56;5091936;28;1309;-95
2022/06/09 13:03:38;;;;;;;;;;;;;;;16.39;63.44;100253.44;5067335;28;1449;-95
2022/06/09 13:06:05;;;;;;;;;;;;;;;16.40;63.38;100246.91;5074402;28;1905;-94
2022/06/09 13:08:32;;;;;;;;;;;;;;;16.42;63.34;100252.09;5073151;28;1766;-95
2022/06/09 13:10:58;;;;;;;;;;;;;;;16.42;63.34;100249.38;5074428;28;1994;-94
2022/06/09 13:13:25;;;;;;;;;;;;;;;16.42;63.27;100258.34;5057903;28;1332;-94
2022/06/09 13:15:51;;;;;;;;;;;;;;;16.44;63.20;100260.78;5057958;28;1228;-95